createdAt,value
2023-02-05T00:02:08.507Z,28.80
2023-02-05T00:04:36.554Z,32.47
2023-02-05T00:07:05.497Z,32.67
2023-02-05T00:09:33.266Z,26.13
2023-02-05T00:12:00.751Z,34.30
2023-02-05T00:14:28.370Z,39.77
2023-02-05T00:16:55.999Z,35.67
2023-02-05T00:19:23.417Z,26.53
2023-02-05T00:21:50.913Z,31.07
2023-02-05T00:24:19.735Z,23.30
2023-02-05T00:26:47.158Z,34.40
2023-02-05T00:29:14.818Z,34.03
2023-02-05T00:31:42.401Z,35.47
2023-02-05T00:34:09.926Z,36.07
2023-02-05T00:36:37.354Z,38.80
2023-02-05T00:39:04.892Z,34.43
2023-02-05T00:41:33.730Z,28.90
2023-02-05T00:44:01.196Z,34.30
2023-02-05T00:46:28.750Z,29.33
2023-02-05T00:48:56.122Z,35.67
2023-02-05T00:51:23.561Z,27.00
2023-02-05T00:53:51.027Z,37.13
2023-02-05T00:56:18.488Z,30.30
2023-02-05T00:58:49.027Z,35.20
2023-02-05T01:01:16.756Z,29.00
2023-02-05T01:03:44.452Z,36.10
2023-02-05T01:06:11.929Z,35.80
2023-02-05T01:08:39.866Z,38.43
2023-02-05T01:11:08.519Z,33.17
2023-02-05T01:13:36.039Z,31.07
2023-02-05T01:16:05.175Z,31.07
2023-02-05T01:18:32.754Z,31.37
2023-02-05T01:21:00.658Z,35.67
2023-02-05T01:23:28.195Z,31.10
2023-02-05T01:25:55.615Z,33.13
2023-02-05T01:28:23.038Z,29.97
2023-02-05T01:30:50.694Z,33.90
2023-02-05T01:33:19.891Z,32.17
2023-02-05T01:35:47.348Z,28.27
2023-02-05T01:38:15.631Z,33.93
2023-02-05T01:40:43.146Z,39.20
2023-02-05T01:43:12.617Z,31.30
2023-02-05T01:45:54.980Z,39.13
2023-02-05T01:48:25.848Z,31.10
2023-02-05T01:50:55.415Z,33.60
2023-02-05T01:53:24.409Z,35.47
2023-02-05T01:55:58.386Z,32.97
2023-02-05T01:58:27.263Z,33.47
2023-02-05T02:00:54.821Z,38.10
2023-02-05T02:03:24.726Z,31.37
2023-02-05T02:05:53.553Z,36.47
2023-02-05T02:08:21.113Z,37.73
2023-02-05T02:10:49.399Z,29.93
2023-02-05T02:13:17.151Z,26.77
2023-02-05T02:15:44.925Z,28.13
2023-02-05T02:18:28.078Z,43.97
2023-02-05T02:21:11.727Z,28.10
2023-02-05T02:23:41.405Z,36.40
2023-02-05T02:26:24.381Z,29.77
2023-02-05T02:28:55.755Z,36.33
2023-02-05T02:31:27.101Z,30.13
2023-02-05T02:33:57.421Z,35.77
2023-02-05T02:36:30.205Z,33.13
2023-02-05T02:39:02.257Z,36.17
2023-02-05T02:41:31.262Z,35.37
2023-02-05T02:44:00.680Z,34.23
2023-02-05T02:46:29.630Z,36.93
2023-02-05T02:48:59.016Z,37.03
2023-02-05T02:51:27.981Z,42.17
2023-02-05T02:53:57.393Z,34.90
2023-02-05T02:56:25.503Z,36.73
2023-02-05T02:58:55.229Z,28.20
2023-02-05T03:01:25.444Z,33.13
2023-02-05T03:03:55.883Z,32.27
2023-02-05T03:06:23.706Z,31.00
2023-02-05T03:08:53.775Z,30.67
2023-02-05T03:11:21.600Z,36.57
2023-02-05T03:13:49.181Z,29.70
2023-02-05T03:16:19.382Z,29.10
2023-02-05T03:18:48.743Z,31.93
2023-02-05T03:21:18.245Z,33.07
2023-02-05T03:23:46.174Z,28.10
2023-02-05T03:26:26.852Z,29.63
2023-02-05T03:28:54.485Z,38.90
2023-02-05T03:31:24.341Z,28.53
2023-02-05T03:33:59.303Z,34.23
2023-02-05T03:36:31.036Z,35.83
2023-02-05T03:39:13.128Z,39.97
2023-02-05T03:41:56.758Z,25.70
2023-02-05T03:44:28.740Z,33.23
2023-02-05T03:46:59.853Z,30.40
2023-02-05T03:49:33.059Z,31.60
2023-02-05T03:52:03.233Z,34.37
2023-02-05T03:54:33.641Z,33.13
2023-02-05T03:57:05.705Z,30.43
2023-02-05T03:59:34.015Z,30.43
2023-02-05T04:02:03.063Z,34.13
2023-02-05T04:04:32.178Z,34.10
2023-02-05T04:06:59.607Z,25.40
2023-02-05T04:09:27.136Z,30.23
2023-02-05T04:11:54.566Z,32.27
2023-02-05T04:14:22.186Z,31.10
2023-02-05T04:16:49.612Z,33.80
2023-02-05T04:19:16.982Z,33.60
2023-02-05T04:21:45.809Z,31.00
2023-02-05T04:24:13.205Z,27.53
2023-02-05T04:26:40.613Z,34.63
2023-02-05T04:29:08.017Z,35.53
2023-02-05T04:31:35.503Z,33.63
2023-02-05T04:34:02.970Z,32.10
2023-02-05T04:36:30.465Z,28.93
2023-02-05T04:38:59.282Z,29.70
2023-02-05T04:41:26.821Z,30.57
2023-02-05T04:43:54.277Z,35.40
2023-02-05T04:46:21.859Z,32.40
2023-02-05T04:48:49.254Z,35.50
2023-02-05T04:51:17.282Z,30.77
2023-02-05T04:53:44.868Z,35.77
2023-02-05T04:56:14.198Z,34.33
2023-02-05T04:58:42.021Z,30.23
2023-02-05T05:01:12.362Z,31.17
2023-02-05T05:03:40.157Z,30.90
2023-02-05T05:06:08.070Z,30.83
2023-02-05T05:08:35.879Z,34.57
2023-02-05T05:11:07.136Z,29.47
2023-02-05T05:13:36.253Z,34.53
2023-02-05T05:16:04.741Z,29.43
2023-02-05T05:18:32.791Z,35.77
2023-02-05T05:21:00.344Z,37.53
2023-02-05T05:23:28.123Z,32.93
2023-02-05T05:25:55.780Z,28.30
2023-02-05T05:28:23.200Z,38.23
2023-02-05T05:30:52.095Z,37.57
2023-02-05T05:33:19.637Z,31.07
2023-02-05T05:35:47.072Z,39.97
2023-02-05T05:38:14.547Z,37.63
2023-02-05T05:40:59.323Z,33.20
2023-02-05T05:43:44.399Z,36.07
2023-02-05T05:46:14.655Z,33.87
2023-02-05T05:48:42.192Z,28.53
2023-02-05T05:51:09.562Z,34.37
2023-02-05T05:53:36.980Z,30.73
2023-02-05T05:56:04.581Z,30.00
2023-02-05T05:58:32.128Z,31.00
2023-02-05T06:00:59.526Z,33.13
2023-02-05T06:03:28.364Z,30.63
2023-02-05T06:05:55.859Z,32.33
2023-02-05T06:08:23.352Z,29.07
2023-02-05T06:10:50.777Z,30.57
2023-02-05T06:13:18.260Z,29.77
2023-02-05T06:15:45.700Z,34.43
2023-02-05T06:18:13.192Z,33.90
2023-02-05T06:20:41.981Z,33.60
2023-02-05T06:23:09.419Z,28.67
2023-02-05T06:25:36.877Z,37.73
2023-02-05T06:28:04.457Z,32.27
2023-02-05T06:30:31.891Z,32.73
2023-02-05T06:32:59.333Z,30.07
2023-02-05T06:35:26.798Z,28.40
2023-02-05T06:37:55.633Z,30.90
2023-02-05T06:40:25.858Z,31.80
2023-02-05T06:42:53.522Z,27.77
2023-02-05T06:45:20.964Z,32.57
2023-02-05T06:47:48.652Z,28.93
2023-02-05T06:50:16.208Z,29.63
2023-02-05T06:52:43.621Z,31.80
2023-02-05T06:55:12.450Z,26.30
2023-02-05T06:57:39.871Z,31.20
2023-02-05T07:00:08.036Z,28.17
2023-02-05T07:02:35.603Z,29.13
2023-02-05T07:05:03.176Z,26.27
2023-02-05T07:07:30.653Z,26.20
2023-02-05T07:09:58.065Z,25.87
2023-02-05T07:12:26.870Z,29.10
2023-02-05T07:14:54.315Z,33.10
2023-02-05T07:17:21.888Z,31.43
2023-02-05T07:19:49.372Z,30.30
2023-02-05T07:22:17.214Z,30.03
2023-02-05T07:24:44.671Z,26.73
2023-02-05T07:27:12.088Z,29.43
2023-02-05T07:29:41.013Z,31.80
2023-02-05T07:32:08.445Z,30.87
2023-02-05T07:34:36.089Z,28.50
2023-02-05T07:37:03.685Z,30.10
2023-02-05T07:39:31.281Z,31.20
2023-02-05T07:41:58.778Z,34.60
2023-02-05T07:44:26.231Z,35.73
2023-02-05T07:46:55.100Z,33.00
2023-02-05T07:49:22.713Z,33.40
2023-02-05T07:51:50.232Z,29.67
2023-02-05T07:54:17.699Z,37.30
2023-02-05T07:56:45.184Z,32.80
2023-02-05T07:59:12.692Z,29.60
2023-02-05T08:01:40.109Z,31.80
2023-02-05T08:04:09.343Z,32.90
2023-02-05T08:06:36.824Z,27.57
2023-02-05T08:09:04.225Z,37.73
2023-02-05T08:11:32.643Z,45.17
2023-02-05T08:14:01.538Z,36.73
2023-02-05T08:16:29.076Z,43.50
2023-02-05T08:18:56.625Z,49.60
2023-02-05T08:21:25.505Z,42.20
2023-02-05T08:23:53.918Z,45.23
2023-02-05T08:26:21.679Z,44.77
2023-02-05T08:28:49.098Z,47.30
2023-02-05T08:31:17.828Z,42.77
2023-02-05T08:33:45.718Z,43.30
2023-02-05T08:36:13.154Z,42.07
2023-02-05T08:38:42.049Z,46.50
2023-02-05T08:41:12.622Z,45.00
2023-02-05T08:43:42.046Z,46.43
2023-02-05T08:46:09.701Z,44.13
2023-02-05T08:48:37.161Z,39.70
2023-02-05T08:51:04.980Z,41.43
2023-02-05T08:53:32.603Z,38.40
2023-02-05T08:56:02.361Z,39.40
2023-02-05T08:58:30.167Z,35.20
2023-02-05T09:01:01.433Z,38.60
2023-02-05T09:03:29.018Z,37.50
2023-02-05T09:05:56.435Z,36.67
2023-02-05T09:08:23.948Z,36.90
2023-02-05T09:10:51.608Z,34.97
2023-02-05T09:13:20.528Z,36.37
2023-02-05T09:15:49.225Z,33.13
2023-02-05T09:18:16.683Z,25.73
2023-02-05T09:20:44.900Z,25.47
2023-02-05T09:23:13.334Z,37.27
2023-02-05T09:25:40.941Z,28.17
2023-02-05T09:28:09.849Z,23.90
2023-02-05T09:30:38.866Z,21.77
2023-02-05T09:33:06.743Z,23.53
2023-02-05T09:35:34.510Z,24.17
2023-02-05T09:38:03.422Z,18.37
2023-02-05T09:40:33.777Z,21.90
2023-02-05T09:43:04.375Z,13.07
2023-02-05T09:45:46.876Z,14.10
2023-02-05T09:48:25.705Z,10.50
2023-02-05T09:50:53.491Z,11.60
2023-02-05T09:53:22.261Z,7.73
2023-02-05T09:55:50.057Z,9.00
2023-02-05T09:58:18.970Z,5.70
2023-02-05T10:00:49.478Z,5.43
2023-02-05T10:03:22.612Z,5.00
2023-02-05T10:05:57.593Z,6.57
2023-02-05T10:08:28.397Z,2.80
2023-02-05T10:10:56.259Z,2.87
2023-02-05T10:13:35.927Z,3.80
2023-02-05T10:16:23.377Z,3.53
2023-02-05T10:19:09.218Z,3.27
2023-02-05T10:21:41.315Z,3.43
2023-02-05T10:24:17.458Z,4.60
2023-02-05T10:26:46.585Z,3.97
2023-02-05T10:29:18.004Z,5.40
2023-02-05T10:31:53.774Z,5.47
2023-02-05T10:34:29.493Z,4.43
2023-02-05T10:36:56.873Z,4.60
2023-02-05T10:39:26.664Z,4.40
2023-02-05T10:41:57.561Z,4.50
2023-02-05T10:44:28.395Z,4.30
2023-02-05T10:46:58.475Z,8.60
2023-02-05T10:49:29.972Z,7.10
2023-02-05T10:51:57.332Z,4.53
2023-02-05T10:54:27.323Z,4.00
2023-02-05T10:56:54.841Z,6.33
2023-02-05T10:59:23.549Z,7.07
2023-02-05T11:01:51.517Z,4.20
2023-02-05T11:04:22.843Z,7.03
2023-02-05T11:06:53.196Z,5.60
2023-02-05T11:09:31.460Z,6.80
2023-02-05T11:11:59.530Z,9.53
2023-02-05T11:14:29.727Z,9.43
2023-02-05T11:16:57.203Z,10.30
2023-02-05T11:19:26.649Z,10.90
2023-02-05T11:21:56.068Z,7.00
2023-02-05T11:24:24.937Z,8.13
2023-02-05T11:27:11.796Z,10.17
2023-02-05T11:29:39.221Z,7.63
2023-02-05T11:32:18.815Z,5.93
2023-02-05T11:34:46.294Z,7.37
2023-02-05T11:37:17.200Z,8.83
2023-02-05T11:39:45.695Z,11.87
2023-02-05T11:42:18.470Z,10.47
2023-02-05T11:44:49.123Z,7.40
2023-02-05T11:47:22.493Z,8.57
2023-02-05T11:49:51.387Z,9.00
2023-02-05T11:52:27.130Z,9.50
2023-02-05T11:54:54.843Z,5.80
2023-02-05T11:57:31.639Z,5.80
2023-02-05T11:59:59.782Z,6.50
2023-02-05T12:02:29.738Z,8.10
2023-02-05T12:04:59.403Z,4.87
2023-02-05T12:07:30.353Z,8.43
2023-02-05T12:09:59.938Z,6.90
2023-02-05T12:12:30.368Z,11.67
2023-02-05T12:15:02.824Z,11.87
2023-02-05T12:17:35.117Z,10.47
2023-02-05T12:20:10.933Z,7.70
2023-02-05T12:22:50.613Z,8.07
2023-02-05T12:25:24.800Z,5.83
2023-02-05T12:28:02.545Z,7.47
2023-02-05T12:30:38.046Z,5.37
2023-02-05T12:33:17.705Z,4.90
2023-02-05T12:35:49.656Z,7.90
2023-02-05T12:38:32.139Z,8.30
2023-02-05T12:41:07.903Z,8.17
2023-02-05T12:43:38.550Z,9.80
2023-02-05T12:46:11.972Z,9.60
2023-02-05T12:48:46.702Z,8.13
2023-02-05T12:51:25.473Z,8.63
2023-02-05T12:54:02.035Z,8.53
2023-02-05T12:56:36.693Z,7.10
2023-02-05T12:59:07.241Z,6.77
2023-02-05T13:01:38.716Z,7.80
2023-02-05T13:04:07.517Z,5.27
2023-02-05T13:06:37.733Z,7.60
2023-02-05T13:09:09.308Z,8.50
2023-02-05T13:11:39.436Z,5.17
2023-02-05T13:14:09.361Z,9.47
2023-02-05T13:16:41.097Z,4.70
2023-02-05T13:19:15.392Z,4.60
2023-02-05T13:22:03.311Z,6.40
2023-02-05T13:24:51.807Z,8.27
2023-02-05T13:27:39.607Z,5.60
2023-02-05T13:30:10.449Z,4.00
2023-02-05T13:32:38.769Z,5.63
2023-02-05T13:35:08.448Z,4.37
2023-02-05T13:37:48.905Z,8.10
2023-02-05T13:40:37.106Z,3.83
2023-02-05T13:43:25.427Z,6.00
2023-02-05T13:46:04.841Z,5.43
2023-02-05T13:48:47.149Z,7.50
2023-02-05T13:51:20.177Z,6.77
2023-02-05T13:54:06.326Z,5.50
2023-02-05T13:56:42.356Z,3.93
2023-02-05T13:59:14.322Z,3.80
2023-02-05T14:01:44.057Z,6.20
2023-02-05T14:04:18.626Z,4.17
2023-02-05T14:06:50.134Z,5.90
2023-02-05T14:09:22.289Z,4.53
2023-02-05T14:11:57.001Z,4.53
2023-02-05T14:14:34.896Z,4.10
2023-02-05T14:17:23.756Z,3.90
2023-02-05T14:19:56.820Z,3.90
2023-02-05T14:22:35.588Z,4.00
2023-02-05T14:25:03.028Z,3.97
2023-02-05T14:27:45.809Z,3.70
2023-02-05T14:30:38.521Z,4.67
2023-02-05T14:33:26.215Z,5.00
2023-02-05T14:35:56.279Z,3.37
2023-02-05T14:38:24.796Z,3.40
2023-02-05T14:41:02.599Z,4.50
2023-02-05T14:43:32.831Z,5.40
2023-02-05T14:46:03.281Z,6.73
2023-02-05T14:48:32.975Z,3.23
2023-02-05T14:51:05.356Z,3.73
2023-02-05T14:53:33.722Z,3.43
2023-02-05T14:56:02.264Z,2.80
2023-02-05T14:58:32.352Z,3.83
2023-02-05T15:01:18.493Z,3.10
2023-02-05T15:03:47.284Z,2.80
2023-02-05T15:06:15.654Z,3.17
2023-02-05T15:08:51.952Z,3.83
2023-02-05T15:11:23.585Z,3.30
2023-02-05T15:14:09.725Z,2.80
2023-02-05T15:16:38.344Z,4.40
2023-02-05T15:19:08.010Z,4.30
2023-02-05T15:21:38.120Z,3.33
2023-02-05T15:24:07.484Z,3.00
2023-02-05T15:26:42.784Z,3.70
2023-02-05T15:29:14.450Z,3.97
2023-02-05T15:31:43.027Z,4.40
2023-02-05T15:34:31.941Z,3.67
2023-02-05T15:37:01.857Z,4.20
2023-02-05T15:39:32.009Z,3.63
2023-02-05T15:42:01.029Z,2.50
2023-02-05T15:44:29.471Z,2.90
2023-02-05T15:46:57.752Z,8.50
2023-02-05T15:49:29.060Z,2.80
2023-02-05T15:51:58.044Z,10.33
2023-02-05T15:54:25.797Z,5.13
2023-02-05T15:56:53.847Z,3.50
2023-02-05T15:59:23.675Z,2.60
2023-02-05T16:01:54.616Z,3.53
2023-02-05T16:04:28.819Z,8.13
2023-02-05T16:06:56.403Z,8.37
2023-02-05T16:09:25.829Z,4.83
2023-02-05T16:11:53.253Z,5.70
2023-02-05T16:14:21.438Z,6.90
2023-02-05T16:16:56.084Z,12.57
2023-02-05T16:19:26.016Z,15.73
2023-02-05T16:21:55.588Z,9.70
2023-02-05T16:24:26.995Z,13.30
2023-02-05T16:26:56.529Z,7.40
2023-02-05T16:29:28.119Z,9.40
2023-02-05T16:31:58.851Z,8.27
2023-02-05T16:34:26.434Z,6.77
2023-02-05T16:36:54.620Z,7.53
2023-02-05T16:39:24.724Z,4.60
2023-02-05T16:42:03.146Z,7.50
2023-02-05T16:44:32.586Z,10.97
2023-02-05T16:47:07.562Z,9.27
2023-02-05T16:49:34.956Z,12.30
2023-02-05T16:52:03.488Z,12.97
2023-02-05T16:54:32.335Z,9.37
2023-02-05T16:57:06.742Z,17.37
2023-02-05T16:59:35.747Z,12.57
2023-02-05T17:02:04.301Z,16.80
2023-02-05T17:04:32.972Z,12.60
2023-02-05T17:07:01.443Z,15.97
2023-02-05T17:09:31.788Z,18.10
2023-02-05T17:12:14.158Z,19.27
2023-02-05T17:14:52.664Z,12.13
2023-02-05T17:17:20.317Z,14.13
2023-02-05T17:20:02.711Z,15.43
2023-02-05T17:22:30.137Z,16.53
2023-02-05T17:24:57.560Z,20.10
2023-02-05T17:27:27.405Z,16.13
2023-02-05T17:29:56.483Z,8.83
2023-02-05T17:32:24.225Z,13.00
2023-02-05T17:34:51.721Z,12.93
2023-02-05T17:37:19.150Z,10.57
2023-02-05T17:39:46.712Z,9.47
2023-02-05T17:42:19.908Z,10.40
2023-02-05T17:44:47.402Z,13.57
2023-02-05T17:47:16.592Z,12.63
2023-02-05T17:49:44.136Z,13.00
2023-02-05T17:52:11.525Z,11.70
2023-02-05T17:54:39.205Z,9.43
2023-02-05T17:57:14.130Z,13.90
2023-02-05T17:59:43.042Z,12.63
2023-02-05T18:02:10.557Z,13.13
2023-02-05T18:04:39.377Z,16.33
2023-02-05T18:07:08.041Z,14.63
2023-02-05T18:09:35.488Z,13.13
2023-02-05T18:12:03.174Z,13.83
2023-02-05T18:14:30.617Z,9.60
2023-02-05T18:16:58.041Z,17.77
2023-02-05T18:19:25.539Z,15.23
2023-02-05T18:21:54.381Z,5.50
2023-02-05T18:24:21.829Z,14.30
2023-02-05T18:26:52.538Z,19.30
2023-02-05T18:29:21.367Z,11.03
2023-02-05T18:31:48.806Z,17.10
2023-02-05T18:34:16.319Z,15.20
2023-02-05T18:36:43.744Z,17.80
2023-02-05T18:39:12.544Z,14.87
2023-02-05T18:41:40.880Z,17.73
2023-02-05T18:44:08.277Z,16.17
2023-02-05T18:46:35.808Z,20.77
2023-02-05T18:49:03.312Z,19.80
2023-02-05T18:51:30.946Z,23.13
2023-02-05T18:53:58.674Z,14.60
2023-02-05T18:56:28.303Z,12.97
2023-02-05T18:58:59.152Z,19.80
2023-02-05T19:01:29.126Z,18.60
2023-02-05T19:03:57.287Z,18.50
2023-02-05T19:06:24.712Z,16.33
2023-02-05T19:08:52.220Z,16.23
2023-02-05T19:11:20.837Z,21.37
2023-02-05T19:13:55.114Z,12.60
2023-02-05T19:16:22.531Z,16.60
2023-02-05T19:18:49.928Z,16.97
2023-02-05T19:21:18.361Z,14.07
2023-02-05T19:23:46.236Z,13.27
2023-02-05T19:26:15.304Z,14.43
2023-02-05T19:28:43.052Z,17.13
2023-02-05T19:31:13.227Z,14.43
2023-02-05T19:33:41.331Z,16.13
2023-02-05T19:36:10.066Z,16.87
2023-02-05T19:38:38.126Z,17.93
2023-02-05T19:41:08.963Z,21.23
2023-02-05T19:43:36.558Z,20.40
2023-02-05T19:46:04.770Z,18.57
2023-02-05T19:48:33.745Z,13.37
2023-02-05T19:51:03.972Z,16.97
2023-02-05T19:53:31.828Z,14.63
2023-02-05T19:56:06.735Z,24.03
2023-02-05T19:58:34.266Z,48.33
2023-02-05T20:01:01.861Z,25.10
2023-02-05T20:03:29.350Z,19.10
2023-02-05T20:06:00.952Z,18.60
2023-02-05T20:08:29.296Z,13.13
2023-02-05T20:11:00.468Z,18.23
2023-02-05T20:13:28.205Z,17.73
2023-02-05T20:15:56.014Z,15.33
2023-02-05T20:18:23.619Z,15.90
2023-02-05T20:20:51.076Z,20.77
2023-02-05T20:23:21.210Z,21.70
2023-02-05T20:25:53.045Z,17.33
2023-02-05T20:28:20.473Z,18.73
2023-02-05T20:31:05.545Z,22.40
2023-02-05T20:33:32.988Z,17.40
2023-02-05T20:36:03.828Z,15.03
2023-02-05T20:38:32.632Z,20.00
2023-02-05T20:41:00.481Z,18.37
2023-02-05T20:43:27.949Z,15.90
2023-02-05T20:45:55.419Z,15.13
2023-02-05T20:48:22.935Z,23.33
2023-02-05T20:50:50.432Z,19.93
2023-02-05T20:53:17.871Z,12.83
2023-02-05T20:55:46.624Z,11.47
2023-02-05T20:58:14.124Z,16.87
2023-02-05T21:00:42.039Z,11.10
2023-02-05T21:03:09.466Z,15.43
2023-02-05T21:05:36.900Z,10.90
2023-02-05T21:08:04.286Z,18.80
2023-02-05T21:10:32.122Z,11.50
2023-02-05T21:13:00.943Z,12.53
2023-02-05T21:15:29.032Z,13.47
2023-02-05T21:17:56.404Z,9.10
2023-02-05T21:20:23.971Z,8.77
2023-02-05T21:22:51.413Z,16.80
2023-02-05T21:25:18.829Z,16.83
2023-02-05T21:27:46.250Z,10.57
2023-02-05T21:30:15.242Z,10.93
2023-02-05T21:32:42.653Z,8.20
2023-02-05T21:35:10.123Z,10.10
2023-02-05T21:37:38.854Z,9.20
2023-02-05T21:40:09.601Z,8.93
2023-02-05T21:42:37.395Z,9.63
2023-02-05T21:45:05.163Z,9.73
2023-02-05T21:47:33.948Z,6.90
2023-02-05T21:50:01.395Z,8.77
2023-02-05T21:52:28.902Z,7.30
2023-02-05T21:54:56.368Z,9.40
2023-02-05T21:57:24.798Z,12.23
2023-02-05T21:59:52.210Z,7.50
2023-02-05T22:02:19.783Z,7.63
2023-02-05T22:04:48.714Z,8.73
2023-02-05T22:07:16.213Z,9.37
2023-02-05T22:09:43.643Z,9.97
2023-02-05T22:12:11.249Z,13.50
2023-02-05T22:14:38.637Z,5.40
2023-02-05T22:17:06.102Z,5.27
2023-02-05T22:19:33.517Z,13.40
2023-02-05T22:22:02.795Z,12.03
2023-02-05T22:24:30.180Z,6.40
2023-02-05T22:26:57.727Z,11.10
2023-02-05T22:29:25.169Z,14.60
2023-02-05T22:31:54.023Z,13.20
2023-02-05T22:34:21.989Z,17.50
2023-02-05T22:36:49.456Z,21.63
2023-02-05T22:39:18.331Z,17.70
2023-02-05T22:41:45.728Z,28.33
2023-02-05T22:44:13.203Z,19.20
2023-02-05T22:46:42.273Z,18.43
2023-02-05T22:49:11.182Z,21.93
2023-02-05T22:51:39.259Z,13.37
2023-02-05T22:54:07.057Z,13.83
2023-02-05T22:56:35.868Z,15.93
2023-02-05T22:59:03.758Z,12.70
2023-02-05T23:01:32.137Z,15.47
2023-02-05T23:03:59.650Z,8.07
2023-02-05T23:06:27.966Z,10.70
2023-02-05T23:08:56.429Z,10.83
2023-02-05T23:11:24.485Z,12.63
2023-02-05T23:13:53.668Z,12.87
2023-02-05T23:16:21.796Z,10.17
2023-02-05T23:18:49.486Z,13.70
2023-02-05T23:21:17.714Z,13.03
2023-02-05T23:23:45.409Z,16.57
2023-02-05T23:26:14.042Z,10.93
2023-02-05T23:28:41.483Z,9.07
2023-02-05T23:31:10.424Z,10.60
2023-02-05T23:33:38.642Z,8.00
2023-02-05T23:36:07.336Z,14.23
2023-02-05T23:38:34.833Z,11.27
2023-02-05T23:41:02.721Z,13.77
2023-02-05T23:43:32.200Z,8.33
2023-02-05T23:45:59.713Z,12.30
2023-02-05T23:48:28.975Z,9.60
2023-02-05T23:50:57.356Z,7.17
2023-02-05T23:53:25.049Z,8.87
2023-02-05T23:55:53.447Z,14.60
2023-02-05T23:58:23.042Z,15.97
